createdAt,value
2022-11-09T00:01:36.489Z,13.42
2022-11-09T00:04:09.746Z,13.40
2022-11-09T00:06:41.944Z,13.38
2022-11-09T00:09:14.326Z,13.38
2022-11-09T00:11:50.622Z,13.39
2022-11-09T00:14:23.112Z,13.38
2022-11-09T00:16:56.763Z,13.37
2022-11-09T00:19:30.443Z,13.21
2022-11-09T00:22:02.635Z,13.16
2022-11-09T00:24:35.998Z,13.26
2022-11-09T00:27:07.926Z,13.34
2022-11-09T00:29:43.555Z,13.34
2022-11-09T00:32:21.951Z,13.35
2022-11-09T00:34:56.236Z,13.33
2022-11-09T00:37:29.608Z,13.32
2022-11-09T00:40:02.865Z,13.28
2022-11-09T00:42:34.843Z,13.27
2022-11-09T00:45:08.969Z,13.22
2022-11-09T00:47:41.237Z,13.24
2022-11-09T00:50:13.560Z,13.25
2022-11-09T00:52:49.265Z,13.24
2022-11-09T00:55:24.283Z,13.30
2022-11-09T00:57:58.438Z,13.32
2022-11-09T01:00:30.355Z,13.34
2022-11-09T01:03:03.194Z,13.31
2022-11-09T01:05:41.788Z,13.26
2022-11-09T01:08:15.829Z,13.25
2022-11-09T01:10:50.668Z,13.25
2022-11-09T01:13:26.810Z,13.24
2022-11-09T01:15:59.652Z,13.23
2022-11-09T01:18:32.366Z,13.23
2022-11-09T01:21:07.870Z,13.22
2022-11-09T01:23:42.817Z,13.22
2022-11-09T01:26:16.805Z,13.22
2022-11-09T01:28:50.708Z,13.24
2022-11-09T01:31:23.510Z,13.22
2022-11-09T01:33:57.616Z,13.22
2022-11-09T01:36:30.516Z,13.24
2022-11-09T01:39:04.362Z,13.22
2022-11-09T01:41:36.910Z,13.22
2022-11-09T01:44:17.126Z,13.20
2022-11-09T01:46:55.066Z,13.16
2022-11-09T01:49:41.209Z,13.08
2022-11-09T01:52:17.499Z,13.02
2022-11-09T01:54:52.604Z,12.96
2022-11-09T01:57:29.625Z,12.91
2022-11-09T02:00:07.947Z,12.85
2022-11-09T02:02:42.552Z,12.78
2022-11-09T02:05:21.166Z,12.74
2022-11-09T02:07:54.005Z,12.66
2022-11-09T02:10:28.264Z,12.57
2022-11-09T02:13:07.343Z,12.50
2022-11-09T02:15:44.437Z,12.40
2022-11-09T02:18:19.240Z,12.26
2022-11-09T02:20:54.426Z,12.18
2022-11-09T02:23:27.226Z,12.05
2022-11-09T02:26:02.938Z,11.91
2022-11-09T02:28:34.996Z,11.74
2022-11-09T02:31:09.704Z,11.81
2022-11-09T02:33:56.369Z,11.79
2022-11-09T02:36:28.778Z,11.78
2022-11-09T02:39:01.445Z,11.76
2022-11-09T02:41:36.834Z,11.72
2022-11-09T02:44:08.970Z,11.69
2022-11-09T02:46:43.142Z,11.64
2022-11-09T02:49:18.298Z,11.61
2022-11-09T02:51:51.542Z,11.57
2022-11-09T02:54:24.399Z,11.54
2022-11-09T02:56:57.768Z,11.47
2022-11-09T02:59:30.012Z,11.41
2022-11-09T03:02:04.738Z,11.35
2022-11-09T03:04:39.432Z,11.29
2022-11-09T03:07:12.325Z,11.25
2022-11-09T03:09:44.515Z,11.27
2022-11-09T03:12:32.071Z,11.23
2022-11-09T03:15:07.737Z,11.19
2022-11-09T03:17:39.831Z,11.17
2022-11-09T03:20:13.849Z,11.19
2022-11-09T03:22:45.610Z,11.22
2022-11-09T03:25:20.518Z,11.20
2022-11-09T03:27:52.776Z,11.17
2022-11-09T03:30:28.036Z,11.15
2022-11-09T03:33:06.573Z,11.11
2022-11-09T03:35:38.622Z,11.13
2022-11-09T03:38:10.703Z,11.13
2022-11-09T03:40:42.630Z,11.17
2022-11-09T03:43:14.716Z,11.15
2022-11-09T03:45:47.490Z,11.15
2022-11-09T03:48:20.055Z,11.12
2022-11-09T03:50:53.274Z,11.05
2022-11-09T03:53:25.285Z,11.04
2022-11-09T03:56:00.635Z,11.03
2022-11-09T03:58:33.630Z,11.00
2022-11-09T04:01:05.506Z,11.05
2022-11-09T04:03:41.756Z,11.05
2022-11-09T04:06:15.306Z,11.05
2022-11-09T04:08:51.462Z,11.01
2022-11-09T04:11:24.233Z,10.99
2022-11-09T04:13:58.554Z,10.99
2022-11-09T04:16:31.024Z,10.96
2022-11-09T04:19:04.019Z,10.76
2022-11-09T04:21:37.634Z,10.87
2022-11-09T04:24:11.897Z,11.00
2022-11-09T04:26:44.593Z,10.97
2022-11-09T04:29:17.424Z,10.94
2022-11-09T04:31:51.910Z,10.87
2022-11-09T04:34:25.485Z,10.71
2022-11-09T04:36:59.129Z,10.84
2022-11-09T04:39:32.820Z,10.85
2022-11-09T04:42:06.575Z,10.87
2022-11-09T04:44:38.916Z,10.86
2022-11-09T04:47:11.528Z,10.82
2022-11-09T04:49:44.089Z,10.81
2022-11-09T04:52:20.003Z,10.77
2022-11-09T04:54:54.042Z,10.70
2022-11-09T04:57:26.186Z,10.64
2022-11-09T04:59:57.964Z,10.65
2022-11-09T05:02:32.061Z,10.69
2022-11-09T05:05:04.339Z,10.72
2022-11-09T05:07:37.640Z,10.73
2022-11-09T05:10:10.527Z,10.70
2022-11-09T05:12:45.609Z,10.70
2022-11-09T05:15:18.478Z,10.53
2022-11-09T05:17:50.888Z,10.58
2022-11-09T05:20:23.907Z,10.73
2022-11-09T05:23:17.626Z,10.77
2022-11-09T05:25:52.256Z,10.78
2022-11-09T05:28:31.029Z,10.79
2022-11-09T05:31:04.318Z,10.81
2022-11-09T05:33:39.223Z,10.85
2022-11-09T05:36:12.839Z,10.82
2022-11-09T05:38:44.693Z,10.78
2022-11-09T05:41:17.351Z,10.75
2022-11-09T05:43:51.114Z,10.75
2022-11-09T05:46:23.033Z,10.77
2022-11-09T05:48:57.593Z,10.77
2022-11-09T05:51:33.342Z,10.80
2022-11-09T05:54:05.996Z,10.83
2022-11-09T05:56:39.845Z,10.82
2022-11-09T05:59:13.054Z,10.89
2022-11-09T06:01:46.114Z,10.88
2022-11-09T06:04:18.680Z,10.92
2022-11-09T06:06:52.318Z,10.77
2022-11-09T06:09:26.307Z,10.73
2022-11-09T06:11:59.288Z,10.72
2022-11-09T06:14:40.553Z,10.90
2022-11-09T06:17:12.500Z,10.96
2022-11-09T06:19:44.391Z,11.03
2022-11-09T06:22:16.614Z,11.11
2022-11-09T06:24:49.216Z,11.12
2022-11-09T06:27:21.981Z,11.14
2022-11-09T06:29:55.211Z,11.15
2022-11-09T06:32:27.317Z,11.19
2022-11-09T06:35:02.928Z,11.21
2022-11-09T06:37:35.422Z,11.26
2022-11-09T06:40:10.150Z,11.32
2022-11-09T06:42:45.381Z,11.43
2022-11-09T06:45:18.054Z,11.52
2022-11-09T06:47:50.380Z,11.57
2022-11-09T06:50:22.586Z,11.66
2022-11-09T06:52:59.264Z,11.74
2022-11-09T06:55:33.130Z,11.79
2022-11-09T06:58:09.210Z,11.82
2022-11-09T07:00:41.373Z,11.91
2022-11-09T07:03:16.613Z,12.00
2022-11-09T07:05:49.649Z,12.09
2022-11-09T07:08:24.172Z,12.18
2022-11-09T07:10:56.633Z,12.29
2022-11-09T07:13:28.663Z,12.33
2022-11-09T07:16:02.598Z,12.37
2022-11-09T07:18:36.438Z,12.63
2022-11-09T07:21:14.242Z,12.67
2022-11-09T07:23:48.808Z,12.80
2022-11-09T07:26:21.689Z,12.93
2022-11-09T07:28:55.259Z,13.03
2022-11-09T07:31:29.753Z,13.31
2022-11-09T07:34:05.413Z,13.58
2022-11-09T07:36:37.872Z,13.75
2022-11-09T07:39:09.812Z,13.96
2022-11-09T07:41:41.629Z,14.15
2022-11-09T07:44:18.245Z,14.39
2022-11-09T07:46:51.590Z,14.66
2022-11-09T07:49:24.307Z,14.89
2022-11-09T07:51:57.008Z,15.15
2022-11-09T07:54:29.816Z,15.40
2022-11-09T07:57:02.885Z,15.61
2022-11-09T07:59:37.079Z,15.77
2022-11-09T08:02:12.993Z,15.90
2022-11-09T08:04:45.773Z,16.04
2022-11-09T08:07:19.799Z,16.19
2022-11-09T08:09:51.994Z,16.29
2022-11-09T08:12:24.942Z,16.47
2022-11-09T08:14:57.396Z,16.63
2022-11-09T08:17:29.686Z,16.70
2022-11-09T08:20:05.108Z,16.83
2022-11-09T08:22:43.966Z,16.92
2022-11-09T08:25:16.813Z,17.02
2022-11-09T08:27:51.074Z,17.06
2022-11-09T08:30:24.050Z,17.13
2022-11-09T08:32:56.990Z,17.26
2022-11-09T08:35:34.564Z,17.39
2022-11-09T08:38:09.613Z,17.45
2022-11-09T08:40:46.550Z,17.53
2022-11-09T08:43:21.825Z,17.58
2022-11-09T08:45:55.629Z,17.63
2022-11-09T08:48:33.740Z,17.70
2022-11-09T08:51:08.964Z,17.71
2022-11-09T08:53:45.959Z,17.80
2022-11-09T08:56:20.689Z,17.87
2022-11-09T08:58:54.568Z,17.90
2022-11-09T09:01:30.287Z,17.86
2022-11-09T09:04:07.280Z,17.86
2022-11-09T09:06:42.957Z,17.97
2022-11-09T09:09:19.731Z,18.09
2022-11-09T09:11:53.964Z,18.22
2022-11-09T09:14:28.923Z,18.34
2022-11-09T09:17:03.617Z,18.39
2022-11-09T09:19:38.565Z,18.40
2022-11-09T09:22:13.899Z,18.46
2022-11-09T09:24:48.572Z,18.54
2022-11-09T09:27:22.750Z,18.52
2022-11-09T09:29:57.427Z,18.55
2022-11-09T09:32:31.598Z,18.64
2022-11-09T09:35:06.156Z,18.62
2022-11-09T09:37:42.906Z,18.59
2022-11-09T09:40:27.042Z,18.57
2022-11-09T09:43:02.686Z,18.54
2022-11-09T09:45:38.075Z,18.49
2022-11-09T09:48:22.761Z,18.38
2022-11-09T09:50:57.240Z,18.37
2022-11-09T09:53:36.592Z,18.37
2022-11-09T09:56:16.013Z,18.44
2022-11-09T09:58:51.712Z,18.52
2022-11-09T10:01:28.654Z,18.55
2022-11-09T10:04:01.999Z,18.60
2022-11-09T10:06:42.025Z,18.64
2022-11-09T10:09:21.685Z,18.67
2022-11-09T10:12:01.720Z,18.77
2022-11-09T10:14:46.164Z,18.84
2022-11-09T10:17:25.443Z,18.89
2022-11-09T10:20:09.015Z,18.92
2022-11-09T10:22:47.202Z,18.95
2022-11-09T10:25:43.388Z,18.92
2022-11-09T10:28:17.541Z,18.88
2022-11-09T10:30:49.619Z,18.89
2022-11-09T10:33:22.542Z,18.87
2022-11-09T10:35:56.558Z,18.91
2022-11-09T10:38:38.117Z,18.93
2022-11-09T10:41:23.682Z,18.95
2022-11-09T10:43:58.119Z,19.06
2022-11-09T10:46:31.686Z,19.14
2022-11-09T10:49:21.535Z,19.20
2022-11-09T10:51:53.606Z,19.25
2022-11-09T10:54:29.254Z,19.33
2022-11-09T10:57:13.928Z,19.45
2022-11-09T10:59:52.072Z,19.57
2022-11-09T11:02:50.145Z,19.60
2022-11-09T11:05:35.132Z,19.68
2022-11-09T11:08:27.361Z,19.66
2022-11-09T11:11:33.259Z,19.66
2022-11-09T11:14:23.515Z,19.65
2022-11-09T11:16:57.961Z,19.62
2022-11-09T11:19:37.626Z,19.60
2022-11-09T11:22:23.153Z,19.67
2022-11-09T11:24:59.044Z,19.74
2022-11-09T11:27:39.647Z,19.83
2022-11-09T11:30:18.279Z,19.90
2022-11-09T11:32:51.545Z,19.99
2022-11-09T11:35:35.002Z,20.12
2022-11-09T11:38:18.240Z,20.23
2022-11-09T11:41:02.607Z,20.28
2022-11-09T11:43:45.544Z,20.43
2022-11-09T11:46:23.487Z,20.56
2022-11-09T11:49:15.937Z,20.71
2022-11-09T11:51:54.292Z,20.85
2022-11-09T11:54:32.356Z,20.95
2022-11-09T11:57:18.700Z,21.11
2022-11-09T12:00:10.538Z,21.29
2022-11-09T12:03:15.248Z,21.48
2022-11-09T12:05:59.562Z,21.65
2022-11-09T12:08:40.473Z,21.73
2022-11-09T12:11:16.895Z,21.83
2022-11-09T12:14:00.093Z,21.92
2022-11-09T12:16:41.072Z,21.64
2022-11-09T12:19:35.233Z,21.48
2022-11-09T12:22:17.721Z,21.33
2022-11-09T12:24:59.571Z,21.28
2022-11-09T12:27:48.276Z,21.26
2022-11-09T12:30:22.394Z,21.27
2022-11-09T12:32:57.861Z,21.34
2022-11-09T12:35:33.797Z,21.66
2022-11-09T12:38:14.158Z,21.66
2022-11-09T12:40:52.165Z,21.81
2022-11-09T12:43:29.721Z,21.99
2022-11-09T12:46:03.326Z,22.09
2022-11-09T12:48:36.250Z,22.11
2022-11-09T12:51:10.229Z,22.21
2022-11-09T12:53:43.164Z,22.28
2022-11-09T12:56:24.141Z,22.27
2022-11-09T12:59:29.530Z,22.30
2022-11-09T13:02:05.377Z,22.49
2022-11-09T13:04:37.926Z,22.64
2022-11-09T13:07:39.610Z,22.70
2022-11-09T13:10:28.313Z,22.61
2022-11-09T13:13:22.971Z,22.58
2022-11-09T13:16:12.535Z,22.57
2022-11-09T13:18:53.562Z,22.49
2022-11-09T13:21:37.897Z,22.39
2022-11-09T13:24:57.185Z,22.26
2022-11-09T13:27:47.207Z,21.96
2022-11-09T13:30:53.246Z,21.87
2022-11-09T13:33:27.410Z,21.93
2022-11-09T13:36:16.005Z,21.88
2022-11-09T13:38:48.387Z,21.69
2022-11-09T13:41:44.460Z,21.57
2022-11-09T13:44:32.811Z,21.23
2022-11-09T13:47:25.306Z,21.08
2022-11-09T13:49:57.773Z,20.96
2022-11-09T13:52:59.762Z,20.94
2022-11-09T13:55:39.034Z,20.90
2022-11-09T13:58:25.059Z,20.80
2022-11-09T14:00:57.744Z,20.70
2022-11-09T14:03:31.718Z,20.52
2022-11-09T14:06:05.542Z,20.29
2022-11-09T14:08:40.742Z,20.16
2022-11-09T14:11:36.028Z,20.06
2022-11-09T14:14:28.736Z,20.14
2022-11-09T14:17:08.453Z,20.02
2022-11-09T14:19:48.040Z,19.72
2022-11-09T14:22:22.696Z,19.55
2022-11-09T14:24:55.673Z,19.40
2022-11-09T14:27:30.790Z,19.30
2022-11-09T14:30:14.984Z,19.23
2022-11-09T14:32:53.489Z,19.32
2022-11-09T14:35:28.777Z,19.20
2022-11-09T14:38:05.552Z,19.05
2022-11-09T14:40:38.405Z,18.99
2022-11-09T14:43:31.015Z,18.90
2022-11-09T14:46:04.465Z,18.76
2022-11-09T14:48:38.950Z,18.70
2022-11-09T14:51:16.729Z,18.59
2022-11-09T14:53:50.532Z,18.46
2022-11-09T14:56:23.589Z,18.35
2022-11-09T14:58:58.085Z,18.30
2022-11-09T15:01:31.028Z,18.24
2022-11-09T15:04:20.272Z,18.30
2022-11-09T15:06:57.966Z,18.17
2022-11-09T15:09:36.573Z,18.06
2022-11-09T15:12:16.056Z,18.02
2022-11-09T15:14:54.388Z,17.95
2022-11-09T15:17:29.221Z,17.89
2022-11-09T15:20:05.029Z,17.82
2022-11-09T15:22:53.515Z,17.70
2022-11-09T15:25:29.152Z,17.62
2022-11-09T15:28:19.114Z,17.56
2022-11-09T15:31:12.822Z,17.48
2022-11-09T15:33:53.099Z,17.41
2022-11-09T15:36:38.941Z,17.37
2022-11-09T15:39:19.006Z,17.36
2022-11-09T15:41:51.326Z,17.30
2022-11-09T15:44:23.637Z,17.25
2022-11-09T15:46:57.088Z,17.17
2022-11-09T15:49:30.708Z,17.07
2022-11-09T15:52:04.002Z,17.01
2022-11-09T15:54:36.474Z,16.92
2022-11-09T15:57:11.309Z,16.83
2022-11-09T15:59:44.111Z,16.75
2022-11-09T16:09:34.315Z,16.52
2022-11-09T16:12:07.949Z,16.41
2022-11-09T16:14:40.333Z,16.36
2022-11-09T16:17:12.963Z,16.33
2022-11-09T16:19:44.760Z,16.31
2022-11-09T16:22:20.804Z,16.26
2022-11-09T16:24:52.940Z,16.21
2022-11-09T16:27:49.108Z,16.20
2022-11-09T16:30:18.763Z,16.19
2022-11-09T16:32:52.284Z,16.14
2022-11-09T16:35:27.583Z,16.10
2022-11-09T16:38:01.241Z,16.07
2022-11-09T16:40:36.727Z,16.03
2022-11-09T16:43:09.392Z,15.99
2022-11-09T16:45:48.802Z,15.94
2022-11-09T16:48:21.788Z,15.85
2022-11-09T16:50:55.109Z,15.79
2022-11-09T16:53:27.467Z,15.74
2022-11-09T16:56:00.947Z,15.69
2022-11-09T16:58:36.800Z,15.65
2022-11-09T17:01:11.957Z,15.58
2022-11-09T17:03:44.875Z,15.54
2022-11-09T17:06:21.819Z,15.53
2022-11-09T17:08:59.734Z,15.48
2022-11-09T17:11:34.572Z,15.44
2022-11-09T17:14:08.841Z,15.37
2022-11-09T17:16:43.105Z,15.33
2022-11-09T17:19:17.901Z,15.28
2022-11-09T17:21:50.781Z,15.24
2022-11-09T17:24:23.929Z,15.22
2022-11-09T17:26:59.834Z,15.23
2022-11-09T17:29:32.910Z,15.22
2022-11-09T17:32:05.975Z,15.21
2022-11-09T17:34:41.677Z,15.19
2022-11-09T17:37:13.935Z,15.16
2022-11-09T17:39:47.352Z,15.13
2022-11-09T17:42:21.451Z,15.11
2022-11-09T17:44:53.783Z,15.10
2022-11-09T17:47:30.072Z,15.06
2022-11-09T17:50:03.049Z,15.03
2022-11-09T17:52:36.708Z,15.02
2022-11-09T17:55:13.224Z,14.99
2022-11-09T17:57:50.532Z,15.00
2022-11-09T18:00:24.317Z,14.97
2022-11-09T18:02:58.603Z,14.94
2022-11-09T18:05:31.396Z,14.94
2022-11-09T18:08:03.981Z,14.91
2022-11-09T18:10:37.889Z,14.88
2022-11-09T18:13:13.345Z,14.83
2022-11-09T18:15:49.110Z,14.79
2022-11-09T18:18:26.717Z,14.76
2022-11-09T18:20:58.852Z,14.73
2022-11-09T18:23:31.763Z,14.73
2022-11-09T18:26:05.228Z,14.69
2022-11-09T18:28:39.186Z,14.67
2022-11-09T18:31:13.525Z,14.62
2022-11-09T18:33:46.106Z,14.61
2022-11-09T18:36:19.789Z,14.60
2022-11-09T18:38:55.832Z,14.57
2022-11-09T18:41:28.280Z,14.55
2022-11-09T18:44:02.510Z,14.53
2022-11-09T18:46:35.781Z,14.55
2022-11-09T18:49:13.897Z,14.53
2022-11-09T18:51:47.570Z,14.50
2022-11-09T18:54:22.277Z,14.47
2022-11-09T18:56:55.108Z,14.46
2022-11-09T18:59:27.911Z,14.45
2022-11-09T19:02:04.464Z,14.42
2022-11-09T19:04:38.037Z,14.40
2022-11-09T19:07:10.488Z,14.41
2022-11-09T19:09:47.025Z,14.40
2022-11-09T19:12:19.795Z,14.38
2022-11-09T19:14:52.287Z,14.33
2022-11-09T19:17:24.065Z,14.25
2022-11-09T19:19:56.210Z,14.30
2022-11-09T19:22:31.037Z,14.27
2022-11-09T19:25:04.570Z,14.27
2022-11-09T19:27:39.071Z,14.26
2022-11-09T19:30:13.724Z,14.23
2022-11-09T19:32:45.782Z,14.21
2022-11-09T19:35:24.863Z,14.19
2022-11-09T19:38:05.987Z,14.16
2022-11-09T19:40:40.500Z,14.16
2022-11-09T19:43:13.692Z,14.17
2022-11-09T19:45:45.854Z,14.16
2022-11-09T19:48:19.163Z,14.17
2022-11-09T19:50:52.781Z,14.17
2022-11-09T19:53:26.424Z,14.19
2022-11-09T19:56:05.161Z,14.17
2022-11-09T19:58:40.842Z,14.16
2022-11-09T20:01:16.473Z,14.14
2022-11-09T20:03:51.290Z,14.17
2022-11-09T20:06:24.725Z,14.14
2022-11-09T20:08:59.559Z,14.13
2022-11-09T20:11:51.226Z,14.12
2022-11-09T20:14:25.147Z,14.11
2022-11-09T20:17:03.057Z,14.11
2022-11-09T20:19:35.823Z,14.08
2022-11-09T20:22:08.712Z,14.06
2022-11-09T20:24:41.073Z,14.06
2022-11-09T20:27:16.903Z,14.03
2022-11-09T20:29:51.399Z,14.05
2022-11-09T20:32:25.478Z,14.02
2022-11-09T20:34:58.760Z,14.03
2022-11-09T20:37:32.669Z,13.99
2022-11-09T20:40:08.131Z,14.01
2022-11-09T20:42:43.803Z,14.01
2022-11-09T20:45:16.607Z,14.00
2022-11-09T20:48:07.695Z,13.97
2022-11-09T20:50:42.997Z,13.97
2022-11-09T20:53:16.208Z,13.94
2022-11-09T20:55:50.032Z,13.92
2022-11-09T20:58:24.121Z,13.92
2022-11-09T21:01:05.463Z,13.92
2022-11-09T21:03:38.274Z,13.91
2022-11-09T21:06:12.465Z,13.89
2022-11-09T21:08:47.505Z,13.89
2022-11-09T21:11:22.295Z,13.87
2022-11-09T21:13:56.520Z,13.85
2022-11-09T21:16:30.764Z,13.84
2022-11-09T21:19:06.177Z,13.84
2022-11-09T21:21:40.625Z,13.74
2022-11-09T21:24:34.142Z,13.61
2022-11-09T21:27:31.655Z,13.70
2022-11-09T21:30:05.030Z,13.66
2022-11-09T21:32:36.970Z,13.66
2022-11-09T21:35:11.515Z,13.64
2022-11-09T21:37:43.940Z,13.73
2022-11-09T21:40:17.833Z,13.82
2022-11-09T21:42:51.175Z,13.71
2022-11-09T21:45:24.547Z,13.71
2022-11-09T21:48:01.322Z,13.93
2022-11-09T21:50:35.789Z,13.97
2022-11-09T21:53:09.083Z,14.01
2022-11-09T21:55:41.257Z,14.01
2022-11-09T21:58:13.271Z,13.80
2022-11-09T22:00:48.104Z,13.88
2022-11-09T22:03:22.166Z,14.03
2022-11-09T22:05:54.384Z,14.06
2022-11-09T22:08:28.621Z,14.10
2022-11-09T22:11:07.783Z,14.10
2022-11-09T22:14:00.842Z,14.10
2022-11-09T22:16:35.786Z,14.10
2022-11-09T22:19:26.730Z,14.09
2022-11-09T22:22:00.764Z,14.08
2022-11-09T22:24:32.637Z,14.06
2022-11-09T22:27:05.859Z,14.06
2022-11-09T22:29:37.776Z,14.09
2022-11-09T22:32:11.007Z,14.09
2022-11-09T22:34:44.983Z,14.05
2022-11-09T22:37:16.990Z,14.07
2022-11-09T22:39:49.404Z,14.08
2022-11-09T22:42:21.227Z,14.06
2022-11-09T22:44:53.300Z,14.07
2022-11-09T22:47:28.090Z,14.07
2022-11-09T22:50:00.607Z,14.08
2022-11-09T22:52:33.822Z,14.09
2022-11-09T22:55:09.094Z,14.10
2022-11-09T22:57:43.721Z,14.13
2022-11-09T23:00:19.249Z,14.17
2022-11-09T23:02:52.485Z,14.20
2022-11-09T23:05:24.720Z,14.13
2022-11-09T23:07:59.142Z,14.12
2022-11-09T23:10:32.360Z,14.10
2022-11-09T23:13:08.304Z,14.11
2022-11-09T23:15:40.229Z,14.07
2022-11-09T23:18:29.865Z,14.10
2022-11-09T23:21:03.785Z,14.12
2022-11-09T23:23:35.803Z,14.16
2022-11-09T23:26:08.377Z,14.15
2022-11-09T23:28:40.542Z,14.20
2022-11-09T23:31:14.441Z,14.23
2022-11-09T23:33:46.408Z,14.26
2022-11-09T23:36:18.620Z,14.34
2022-11-09T23:38:50.649Z,14.40
2022-11-09T23:41:22.640Z,14.37
2022-11-09T23:43:57.141Z,14.36
2022-11-09T23:46:28.926Z,14.35
2022-11-09T23:49:00.842Z,14.37
2022-11-09T23:51:32.557Z,14.40
2022-11-09T23:54:05.321Z,14.41
2022-11-09T23:56:37.096Z,14.41
2022-11-09T23:59:09.225Z,14.42
